sensor_id;sensor_type;location;lat;lon;timestamp;temperature;humidity
24730;DHT22;12832;52.392;13.066;2022-11-12T00:00:35;25.10;40.10
24730;DHT22;12832;52.392;13.066;2022-11-12T00:03:28;25.10;40.10
24730;DHT22;12832;52.392;13.066;2022-11-12T00:05:55;25.10;40.10
24730;DHT22;12832;52.392;13.066;2022-11-12T00:08:23;25.10;40.10
24730;DHT22;12832;52.392;13.066;2022-11-12T00:10:52;25.10;40.10
24730;DHT22;12832;52.392;13.066;2022-11-12T00:13:22;25.10;40.10
24730;DHT22;12832;52.392;13.066;2022-11-12T00:15:52;25.10;40.10
24730;DHT22;12832;52.392;13.066;2022-11-12T00:18:22;25.10;40.10
24730;DHT22;12832;52.392;13.066;2022-11-12T00:20:50;25.10;40.20
24730;DHT22;12832;52.392;13.066;2022-11-12T00:23:25;25.10;40.10
24730;DHT22;12832;52.392;13.066;2022-11-12T00:26:00;25.10;40.20
24730;DHT22;12832;52.392;13.066;2022-11-12T00:28:30;25.10;40.10
24730;DHT22;12832;52.392;13.066;2022-11-12T00:31:09;25.10;40.20
24730;DHT22;12832;52.392;13.066;2022-11-12T00:33:40;25.10;40.20
24730;DHT22;12832;52.392;13.066;2022-11-12T00:36:10;25.10;40.20
24730;DHT22;12832;52.392;13.066;2022-11-12T00:38:38;25.10;40.10
24730;DHT22;12832;52.392;13.066;2022-11-12T00:41:05;25.10;40.10
24730;DHT22;12832;52.392;13.066;2022-11-12T00:43:34;25.20;40.20
24730;DHT22;12832;52.392;13.066;2022-11-12T00:46:04;25.10;40.10
24730;DHT22;12832;52.392;13.066;2022-11-12T00:48:31;25.10;40.10
24730;DHT22;12832;52.392;13.066;2022-11-12T00:51:02;25.10;40.10
24730;DHT22;12832;52.392;13.066;2022-11-12T00:53:32;25.20;40.20
24730;DHT22;12832;52.392;13.066;2022-11-12T00:56:07;25.10;40.20
24730;DHT22;12832;52.392;13.066;2022-11-12T00:58:36;25.10;40.20
24730;DHT22;12832;52.392;13.066;2022-11-12T01:01:10;25.10;40.10
24730;DHT22;12832;52.392;13.066;2022-11-12T01:03:42;25.10;40.10
24730;DHT22;12832;52.392;13.066;2022-11-12T01:06:12;25.10;40.10
24730;DHT22;12832;52.392;13.066;2022-11-12T01:08:43;25.20;40.20
24730;DHT22;12832;52.392;13.066;2022-11-12T01:11:20;25.20;40.20
24730;DHT22;12832;52.392;13.066;2022-11-12T01:14:02;25.20;40.10
24730;DHT22;12832;52.392;13.066;2022-11-12T01:16:35;25.20;40.10
24730;DHT22;12832;52.392;13.066;2022-11-12T01:19:09;25.20;40.10
24730;DHT22;12832;52.392;13.066;2022-11-12T01:21:42;25.20;40.10
24730;DHT22;12832;52.392;13.066;2022-11-12T01:24:11;25.20;40.10
24730;DHT22;12832;52.392;13.066;2022-11-12T01:26:43;25.20;40.10
24730;DHT22;12832;52.392;13.066;2022-11-12T01:29:15;25.20;40.10
24730;DHT22;12832;52.392;13.066;2022-11-12T01:31:46;25.20;40.10
24730;DHT22;12832;52.392;13.066;2022-11-12T01:34:14;25.20;40.10
24730;DHT22;12832;52.392;13.066;2022-11-12T01:36:44;25.20;40.10
24730;DHT22;12832;52.392;13.066;2022-11-12T01:39:14;25.20;40.10
24730;DHT22;12832;52.392;13.066;2022-11-12T01:41:45;25.20;40.10
24730;DHT22;12832;52.392;13.066;2022-11-12T01:44:22;25.20;40.10
24730;DHT22;12832;52.392;13.066;2022-11-12T01:47:10;25.20;40.10
24730;DHT22;12832;52.392;13.066;2022-11-12T01:52:47;25.20;40.10
24730;DHT22;12832;52.392;13.066;2022-11-12T01:55:21;25.20;40.10
24730;DHT22;12832;52.392;13.066;2022-11-12T01:57:59;25.20;40.10
24730;DHT22;12832;52.392;13.066;2022-11-12T02:00:30;25.20;40.10
24730;DHT22;12832;52.392;13.066;2022-11-12T02:03:01;25.20;40.10
24730;DHT22;12832;52.392;13.066;2022-11-12T02:05:31;25.20;40.10
24730;DHT22;12832;52.392;13.066;2022-11-12T02:08:00;25.20;40.10
24730;DHT22;12832;52.392;13.066;2022-11-12T02:10:30;25.30;40.10
24730;DHT22;12832;52.392;13.066;2022-11-12T02:12:59;25.20;40.10
24730;DHT22;12832;52.392;13.066;2022-11-12T02:15:48;25.20;40.10
24730;DHT22;12832;52.392;13.066;2022-11-12T02:18:16;25.20;40.10
24730;DHT22;12832;52.392;13.066;2022-11-12T02:20:44;25.20;40.10
24730;DHT22;12832;52.392;13.066;2022-11-12T02:23:20;25.20;40.10
24730;DHT22;12832;52.392;13.066;2022-11-12T02:25:47;25.20;40.20
24730;DHT22;12832;52.392;13.066;2022-11-12T02:28:17;25.20;40.10
24730;DHT22;12832;52.392;13.066;2022-11-12T02:30:48;25.20;40.10
24730;DHT22;12832;52.392;13.066;2022-11-12T02:33:18;25.20;40.10
24730;DHT22;12832;52.392;13.066;2022-11-12T02:35:48;25.20;40.10
24730;DHT22;12832;52.392;13.066;2022-11-12T02:38:17;25.20;40.10
24730;DHT22;12832;52.392;13.066;2022-11-12T02:40:47;25.20;40.10
24730;DHT22;12832;52.392;13.066;2022-11-12T02:43:18;25.20;40.10
24730;DHT22;12832;52.392;13.066;2022-11-12T02:45:48;25.30;40.10
24730;DHT22;12832;52.392;13.066;2022-11-12T02:48:17;25.30;40.10
24730;DHT22;12832;52.392;13.066;2022-11-12T02:50:54;25.20;40.10
24730;DHT22;12832;52.392;13.066;2022-11-12T02:53:22;25.20;40.10
24730;DHT22;12832;52.392;13.066;2022-11-12T02:56:01;25.30;40.10
24730;DHT22;12832;52.392;13.066;2022-11-12T02:58:33;25.20;40.10
24730;DHT22;12832;52.392;13.066;2022-11-12T03:01:03;25.30;40.10
24730;DHT22;12832;52.392;13.066;2022-11-12T03:03:32;25.20;40.10
24730;DHT22;12832;52.392;13.066;2022-11-12T03:06:00;25.30;40.20
24730;DHT22;12832;52.392;13.066;2022-11-12T03:08:31;25.30;40.20
24730;DHT22;12832;52.392;13.066;2022-11-12T03:11:08;25.20;40.10
24730;DHT22;12832;52.392;13.066;2022-11-12T03:13:38;25.30;40.10
24730;DHT22;12832;52.392;13.066;2022-11-12T03:16:06;25.30;40.20
24730;DHT22;12832;52.392;13.066;2022-11-12T03:18:36;25.20;40.20
24730;DHT22;12832;52.392;13.066;2022-11-12T03:21:06;25.20;40.20
24730;DHT22;12832;52.392;13.066;2022-11-12T03:23:37;25.30;40.20
24730;DHT22;12832;52.392;13.066;2022-11-12T03:26:07;25.30;40.20
24730;DHT22;12832;52.392;13.066;2022-11-12T03:28:35;25.30;40.20
24730;DHT22;12832;52.392;13.066;2022-11-12T03:31:05;25.30;40.20
24730;DHT22;12832;52.392;13.066;2022-11-12T03:33:37;25.30;40.20
24730;DHT22;12832;52.392;13.066;2022-11-12T03:36:07;25.30;40.10
24730;DHT22;12832;52.392;13.066;2022-11-12T03:38:34;25.30;40.10
24730;DHT22;12832;52.392;13.066;2022-11-12T03:41:02;25.30;40.80
24730;DHT22;12832;52.392;13.066;2022-11-12T03:43:30;25.30;40.10
24730;DHT22;12832;52.392;13.066;2022-11-12T03:45:58;25.30;40.10
24730;DHT22;12832;52.392;13.066;2022-11-12T03:48:25;25.30;40.10
24730;DHT22;12832;52.392;13.066;2022-11-12T03:50:59;25.30;40.20
24730;DHT22;12832;52.392;13.066;2022-11-12T03:53:27;25.30;40.20
24730;DHT22;12832;52.392;13.066;2022-11-12T03:55:57;25.30;40.20
24730;DHT22;12832;52.392;13.066;2022-11-12T03:58:26;25.30;40.20
24730;DHT22;12832;52.392;13.066;2022-11-12T04:00:54;25.30;40.10
24730;DHT22;12832;52.392;13.066;2022-11-12T04:03:26;25.30;40.20
24730;DHT22;12832;52.392;13.066;2022-11-12T04:05:54;25.30;40.20
24730;DHT22;12832;52.392;13.066;2022-11-12T04:08:42;25.30;40.20
24730;DHT22;12832;52.392;13.066;2022-11-12T04:11:14;25.30;40.20
24730;DHT22;12832;52.392;13.066;2022-11-12T04:13:45;25.30;40.20
24730;DHT22;12832;52.392;13.066;2022-11-12T04:16:19;25.30;40.90
24730;DHT22;12832;52.392;13.066;2022-11-12T04:19:07;25.30;40.20
24730;DHT22;12832;52.392;13.066;2022-11-12T04:22:09;25.30;40.30
24730;DHT22;12832;52.392;13.066;2022-11-12T04:24:40;25.30;40.20
24730;DHT22;12832;52.392;13.066;2022-11-12T04:27:32;25.30;40.20
24730;DHT22;12832;52.392;13.066;2022-11-12T04:30:06;25.30;40.30
24730;DHT22;12832;52.392;13.066;2022-11-12T04:32:47;25.30;40.30
24730;DHT22;12832;52.392;13.066;2022-11-12T04:35:15;25.30;40.30
24730;DHT22;12832;52.392;13.066;2022-11-12T04:37:47;25.30;40.20
24730;DHT22;12832;52.392;13.066;2022-11-12T04:40:23;25.30;40.20
24730;DHT22;12832;52.392;13.066;2022-11-12T04:43:16;25.30;40.20
24730;DHT22;12832;52.392;13.066;2022-11-12T04:46:04;25.30;40.30
24730;DHT22;12832;52.392;13.066;2022-11-12T04:48:32;25.30;40.20
24730;DHT22;12832;52.392;13.066;2022-11-12T04:51:03;25.30;40.20
24730;DHT22;12832;52.392;13.066;2022-11-12T04:53:53;25.30;40.20
24730;DHT22;12832;52.392;13.066;2022-11-12T04:56:23;25.30;40.30
24730;DHT22;12832;52.392;13.066;2022-11-12T04:58:53;25.30;40.20
24730;DHT22;12832;52.392;13.066;2022-11-12T05:01:22;25.30;40.20
24730;DHT22;12832;52.392;13.066;2022-11-12T05:03:51;25.30;40.20
24730;DHT22;12832;52.392;13.066;2022-11-12T05:06:21;25.30;40.30
24730;DHT22;12832;52.392;13.066;2022-11-12T05:09:10;25.30;40.20
24730;DHT22;12832;52.392;13.066;2022-11-12T05:11:37;25.30;40.20
24730;DHT22;12832;52.392;13.066;2022-11-12T05:14:07;25.30;40.20
24730;DHT22;12832;52.392;13.066;2022-11-12T05:16:38;25.30;40.20
24730;DHT22;12832;52.392;13.066;2022-11-12T05:19:08;25.30;40.20
24730;DHT22;12832;52.392;13.066;2022-11-12T05:21:36;25.30;40.20
24730;DHT22;12832;52.392;13.066;2022-11-12T05:24:25;25.30;40.20
24730;DHT22;12832;52.392;13.066;2022-11-12T05:27:14;25.30;40.20
24730;DHT22;12832;52.392;13.066;2022-11-12T05:29:43;25.30;40.20
24730;DHT22;12832;52.392;13.066;2022-11-12T05:32:14;25.30;40.20
24730;DHT22;12832;52.392;13.066;2022-11-12T05:34:44;25.30;40.20
24730;DHT22;12832;52.392;13.066;2022-11-12T05:37:12;25.30;40.20
24730;DHT22;12832;52.392;13.066;2022-11-12T05:39:43;25.30;40.20
24730;DHT22;12832;52.392;13.066;2022-11-12T05:42:11;25.30;40.20
24730;DHT22;12832;52.392;13.066;2022-11-12T05:44:40;25.30;40.20
24730;DHT22;12832;52.392;13.066;2022-11-12T05:47:11;25.30;40.20
24730;DHT22;12832;52.392;13.066;2022-11-12T05:49:38;25.30;40.20
24730;DHT22;12832;52.392;13.066;2022-11-12T05:52:06;25.30;40.30
24730;DHT22;12832;52.392;13.066;2022-11-12T05:54:34;25.40;40.30
24730;DHT22;12832;52.392;13.066;2022-11-12T05:57:04;25.40;40.30
24730;DHT22;12832;52.392;13.066;2022-11-12T05:59:33;25.40;40.30
24730;DHT22;12832;52.392;13.066;2022-11-12T06:02:01;25.40;40.30
24730;DHT22;12832;52.392;13.066;2022-11-12T06:04:31;25.40;40.30
24730;DHT22;12832;52.392;13.066;2022-11-12T06:07:02;25.40;40.20
24730;DHT22;12832;52.392;13.066;2022-11-12T06:09:35;25.40;40.30
24730;DHT22;12832;52.392;13.066;2022-11-12T06:12:05;25.40;40.20
24730;DHT22;12832;52.392;13.066;2022-11-12T06:14:36;25.40;40.20
24730;DHT22;12832;52.392;13.066;2022-11-12T06:17:05;25.40;40.30
24730;DHT22;12832;52.392;13.066;2022-11-12T06:19:34;25.40;40.30
24730;DHT22;12832;52.392;13.066;2022-11-12T06:22:04;25.30;40.20
24730;DHT22;12832;52.392;13.066;2022-11-12T06:24:34;25.40;40.30
24730;DHT22;12832;52.392;13.066;2022-11-12T06:27:03;25.30;40.30
24730;DHT22;12832;52.392;13.066;2022-11-12T06:29:33;25.40;40.30
24730;DHT22;12832;52.392;13.066;2022-11-12T06:32:02;25.40;40.30
24730;DHT22;12832;52.392;13.066;2022-11-12T06:34:29;25.40;40.30
24730;DHT22;12832;52.392;13.066;2022-11-12T06:36:56;25.40;40.30
24730;DHT22;12832;52.392;13.066;2022-11-12T06:39:24;25.40;40.20
24730;DHT22;12832;52.392;13.066;2022-11-12T06:41:54;25.40;40.20
24730;DHT22;12832;52.392;13.066;2022-11-12T06:44:21;25.40;40.20
24730;DHT22;12832;52.392;13.066;2022-11-12T06:46:49;25.40;40.30
24730;DHT22;12832;52.392;13.066;2022-11-12T06:49:20;25.40;40.20
24730;DHT22;12832;52.392;13.066;2022-11-12T06:51:50;25.40;40.20
24730;DHT22;12832;52.392;13.066;2022-11-12T06:54:20;25.40;40.30
24730;DHT22;12832;52.392;13.066;2022-11-12T06:56:50;25.40;40.30
24730;DHT22;12832;52.392;13.066;2022-11-12T06:59:21;25.40;40.30
24730;DHT22;12832;52.392;13.066;2022-11-12T07:01:51;25.40;40.30
24730;DHT22;12832;52.392;13.066;2022-11-12T07:04:22;25.40;40.20
24730;DHT22;12832;52.392;13.066;2022-11-12T07:06:52;25.40;40.20
24730;DHT22;12832;52.392;13.066;2022-11-12T07:09:20;25.40;40.20
24730;DHT22;12832;52.392;13.066;2022-11-12T07:11:48;25.40;40.30
24730;DHT22;12832;52.392;13.066;2022-11-12T07:14:16;25.40;40.20
24730;DHT22;12832;52.392;13.066;2022-11-12T07:16:47;25.40;40.30
24730;DHT22;12832;52.392;13.066;2022-11-12T07:19:16;25.40;40.30
24730;DHT22;12832;52.392;13.066;2022-11-12T07:21:47;25.40;40.30
24730;DHT22;12832;52.392;13.066;2022-11-12T07:24:15;25.40;40.30
24730;DHT22;12832;52.392;13.066;2022-11-12T07:26:43;25.40;40.30
24730;DHT22;12832;52.392;13.066;2022-11-12T07:29:15;25.40;40.30
24730;DHT22;12832;52.392;13.066;2022-11-12T07:32:01;25.40;40.30
24730;DHT22;12832;52.392;13.066;2022-11-12T07:34:30;25.40;40.30
24730;DHT22;12832;52.392;13.066;2022-11-12T07:36:57;25.40;40.30
24730;DHT22;12832;52.392;13.066;2022-11-12T07:39:28;25.40;40.30
24730;DHT22;12832;52.392;13.066;2022-11-12T07:41:58;25.40;40.30
24730;DHT22;12832;52.392;13.066;2022-11-12T07:44:24;25.40;40.30
24730;DHT22;12832;52.392;13.066;2022-11-12T07:46:53;25.40;40.30
24730;DHT22;12832;52.392;13.066;2022-11-12T07:49:24;25.40;40.30
24730;DHT22;12832;52.392;13.066;2022-11-12T07:51:52;25.40;40.30
24730;DHT22;12832;52.392;13.066;2022-11-12T07:54:23;25.40;40.30
24730;DHT22;12832;52.392;13.066;2022-11-12T07:56:50;25.40;40.30
24730;DHT22;12832;52.392;13.066;2022-11-12T07:59:18;25.40;40.30
24730;DHT22;12832;52.392;13.066;2022-11-12T08:01:49;25.40;40.30
24730;DHT22;12832;52.392;13.066;2022-11-12T08:04:18;25.40;40.30
24730;DHT22;12832;52.392;13.066;2022-11-12T08:06:48;25.40;40.30
24730;DHT22;12832;52.392;13.066;2022-11-12T08:09:17;25.40;40.30
24730;DHT22;12832;52.392;13.066;2022-11-12T08:11:47;25.40;40.30
24730;DHT22;12832;52.392;13.066;2022-11-12T08:14:14;25.40;40.30
24730;DHT22;12832;52.392;13.066;2022-11-12T08:16:44;25.40;40.30
24730;DHT22;12832;52.392;13.066;2022-11-12T08:19:13;25.40;40.30
24730;DHT22;12832;52.392;13.066;2022-11-12T08:21:44;25.40;40.30
24730;DHT22;12832;52.392;13.066;2022-11-12T08:24:11;25.40;40.40
24730;DHT22;12832;52.392;13.066;2022-11-12T08:26:42;25.30;40.30
24730;DHT22;12832;52.392;13.066;2022-11-12T08:29:11;25.40;40.40
24730;DHT22;12832;52.392;13.066;2022-11-12T08:31:39;25.40;40.40
24730;DHT22;12832;52.392;13.066;2022-11-12T08:34:10;25.40;40.40
24730;DHT22;12832;52.392;13.066;2022-11-12T08:36:48;25.40;40.30
24730;DHT22;12832;52.392;13.066;2022-11-12T08:39:18;25.40;40.40
24730;DHT22;12832;52.392;13.066;2022-11-12T08:41:47;25.40;40.40
24730;DHT22;12832;52.392;13.066;2022-11-12T08:44:16;25.40;41.10
24730;DHT22;12832;52.392;13.066;2022-11-12T08:46:46;25.40;40.30
24730;DHT22;12832;52.392;13.066;2022-11-12T08:49:16;25.40;40.40
24730;DHT22;12832;52.392;13.066;2022-11-12T08:51:46;25.40;40.40
24730;DHT22;12832;52.392;13.066;2022-11-12T08:54:17;25.40;40.30
24730;DHT22;12832;52.392;13.066;2022-11-12T08:56:45;25.40;40.30
24730;DHT22;12832;52.392;13.066;2022-11-12T08:59:13;25.40;40.30
24730;DHT22;12832;52.392;13.066;2022-11-12T09:01:42;25.40;40.30
24730;DHT22;12832;52.392;13.066;2022-11-12T09:04:09;25.40;40.30
24730;DHT22;12832;52.392;13.066;2022-11-12T09:06:38;25.40;40.30
24730;DHT22;12832;52.392;13.066;2022-11-12T09:09:10;25.40;40.30
24730;DHT22;12832;52.392;13.066;2022-11-12T09:11:38;25.40;40.30
24730;DHT22;12832;52.392;13.066;2022-11-12T09:14:05;25.40;40.30
24730;DHT22;12832;52.392;13.066;2022-11-12T09:16:35;25.40;40.30
24730;DHT22;12832;52.392;13.066;2022-11-12T09:19:04;25.40;40.30
24730;DHT22;12832;52.392;13.066;2022-11-12T09:21:32;25.40;40.40
24730;DHT22;12832;52.392;13.066;2022-11-12T09:24:04;25.40;40.30
24730;DHT22;12832;52.392;13.066;2022-11-12T09:26:32;25.40;40.30
24730;DHT22;12832;52.392;13.066;2022-11-12T09:29:00;25.40;40.30
24730;DHT22;12832;52.392;13.066;2022-11-12T09:31:32;25.40;40.30
24730;DHT22;12832;52.392;13.066;2022-11-12T09:33:59;25.40;40.30
24730;DHT22;12832;52.392;13.066;2022-11-12T09:36:27;25.40;40.30
24730;DHT22;12832;52.392;13.066;2022-11-12T09:39:03;25.40;40.30
24730;DHT22;12832;52.392;13.066;2022-11-12T09:41:39;25.40;40.30
24730;DHT22;12832;52.392;13.066;2022-11-12T09:44:19;25.40;40.30
24730;DHT22;12832;52.392;13.066;2022-11-12T09:47:01;25.40;40.30
24730;DHT22;12832;52.392;13.066;2022-11-12T09:49:48;25.40;40.40
24730;DHT22;12832;52.392;13.066;2022-11-12T09:52:24;25.40;40.40
24730;DHT22;12832;52.392;13.066;2022-11-12T09:57:40;25.40;40.40
24730;DHT22;12832;52.392;13.066;2022-11-12T10:00:16;25.40;40.40
24730;DHT22;12832;52.392;13.066;2022-11-12T10:03:07;25.40;40.30
24730;DHT22;12832;52.392;13.066;2022-11-12T10:05:55;25.40;40.40
24730;DHT22;12832;52.392;13.066;2022-11-12T10:08:44;25.40;40.40
24730;DHT22;12832;52.392;13.066;2022-11-12T10:11:23;25.40;40.40
24730;DHT22;12832;52.392;13.066;2022-11-12T10:17:08;25.40;40.40
24730;DHT22;12832;52.392;13.066;2022-11-12T10:25:19;25.40;40.50
24730;DHT22;12832;52.392;13.066;2022-11-12T10:27:48;25.40;40.50
24730;DHT22;12832;52.392;13.066;2022-11-12T10:30:19;25.40;40.50
24730;DHT22;12832;52.392;13.066;2022-11-12T10:32:50;25.40;40.50
24730;DHT22;12832;52.392;13.066;2022-11-12T10:35:22;25.40;40.50
24730;DHT22;12832;52.392;13.066;2022-11-12T10:37:57;25.40;40.50
24730;DHT22;12832;52.392;13.066;2022-11-12T10:40:39;25.40;40.50
24730;DHT22;12832;52.392;13.066;2022-11-12T10:45:47;25.40;40.40
24730;DHT22;12832;52.392;13.066;2022-11-12T10:48:28;25.40;40.50
24730;DHT22;12832;52.392;13.066;2022-11-12T10:50:59;25.40;40.50
24730;DHT22;12832;52.392;13.066;2022-11-12T10:53:33;25.40;40.40
24730;DHT22;12832;52.392;13.066;2022-11-12T10:56:04;25.40;40.40
24730;DHT22;12832;52.392;13.066;2022-11-12T10:58:32;25.40;40.40
24730;DHT22;12832;52.392;13.066;2022-11-12T11:01:04;25.40;40.50
24730;DHT22;12832;52.392;13.066;2022-11-12T11:03:47;25.40;40.90
24730;DHT22;12832;52.392;13.066;2022-11-12T11:06:21;25.40;40.50
24730;DHT22;12832;52.392;13.066;2022-11-12T11:09:06;25.40;40.50
24730;DHT22;12832;52.392;13.066;2022-11-12T11:11:37;25.40;40.40
24730;DHT22;12832;52.392;13.066;2022-11-12T11:14:32;25.40;40.50
24730;DHT22;12832;52.392;13.066;2022-11-12T11:17:12;25.40;40.50
24730;DHT22;12832;52.392;13.066;2022-11-12T11:19:43;25.40;40.50
24730;DHT22;12832;52.392;13.066;2022-11-12T11:22:22;25.40;40.50
24730;DHT22;12832;52.392;13.066;2022-11-12T11:25:20;25.40;40.50
24730;DHT22;12832;52.392;13.066;2022-11-12T11:30:25;25.40;40.50
24730;DHT22;12832;52.392;13.066;2022-11-12T11:33:25;25.40;40.60
24730;DHT22;12832;52.392;13.066;2022-11-12T11:44:36;25.40;40.60
24730;DHT22;12832;52.392;13.066;2022-11-12T11:47:36;25.40;40.50
24730;DHT22;12832;52.392;13.066;2022-11-12T11:50:34;25.40;40.60
24730;DHT22;12832;52.392;13.066;2022-11-12T11:56:25;25.40;40.60
24730;DHT22;12832;52.392;13.066;2022-11-12T11:59:03;25.40;40.60
24730;DHT22;12832;52.392;13.066;2022-11-12T12:09:35;25.40;40.60
24730;DHT22;12832;52.392;13.066;2022-11-12T12:12:29;25.40;40.60
24730;DHT22;12832;52.392;13.066;2022-11-12T12:15:31;25.40;40.60
24730;DHT22;12832;52.392;13.066;2022-11-12T12:23:55;25.40;40.60
24730;DHT22;12832;52.392;13.066;2022-11-12T12:31:59;25.40;40.60
24730;DHT22;12832;52.392;13.066;2022-11-12T12:34:46;25.40;40.60
24730;DHT22;12832;52.392;13.066;2022-11-12T12:40:32;25.40;40.60
24730;DHT22;12832;52.392;13.066;2022-11-12T12:43:11;25.40;40.60
24730;DHT22;12832;52.392;13.066;2022-11-12T12:45:45;25.40;40.60
24730;DHT22;12832;52.392;13.066;2022-11-12T12:48:29;25.40;40.60
24730;DHT22;12832;52.392;13.066;2022-11-12T12:50:58;25.40;40.60
24730;DHT22;12832;52.392;13.066;2022-11-12T12:53:35;25.40;40.60
24730;DHT22;12832;52.392;13.066;2022-11-12T12:58:58;25.40;40.60
24730;DHT22;12832;52.392;13.066;2022-11-12T13:01:33;25.40;40.70
24730;DHT22;12832;52.392;13.066;2022-11-12T13:04:07;25.40;40.70
24730;DHT22;12832;52.392;13.066;2022-11-12T13:06:51;25.40;40.60
24730;DHT22;12832;52.392;13.066;2022-11-12T13:09:25;25.40;40.60
24730;DHT22;12832;52.392;13.066;2022-11-12T13:11:57;25.40;40.60
24730;DHT22;12832;52.392;13.066;2022-11-12T13:38:19;25.40;40.50
24730;DHT22;12832;52.392;13.066;2022-11-12T13:41:16;25.40;40.50
24730;DHT22;12832;52.392;13.066;2022-11-12T13:44:11;25.40;40.50
24730;DHT22;12832;52.392;13.066;2022-11-12T13:46:48;25.40;40.60
24730;DHT22;12832;52.392;13.066;2022-11-12T13:49:16;25.40;40.60
24730;DHT22;12832;52.392;13.066;2022-11-12T13:51:49;25.40;40.60
24730;DHT22;12832;52.392;13.066;2022-11-12T13:54:38;25.40;40.60
24730;DHT22;12832;52.392;13.066;2022-11-12T13:59:46;25.40;40.60
24730;DHT22;12832;52.392;13.066;2022-11-12T14:02:25;25.40;40.50
24730;DHT22;12832;52.392;13.066;2022-11-12T14:04:54;25.40;40.60
24730;DHT22;12832;52.392;13.066;2022-11-12T14:10:24;25.40;40.60
24730;DHT22;12832;52.392;13.066;2022-11-12T14:21:27;25.40;40.60
24730;DHT22;12832;52.392;13.066;2022-11-12T14:24:00;25.40;40.60
24730;DHT22;12832;52.392;13.066;2022-11-12T14:26:35;25.40;40.60
24730;DHT22;12832;52.392;13.066;2022-11-12T14:29:03;25.40;40.60
24730;DHT22;12832;52.392;13.066;2022-11-12T14:31:33;25.40;40.60
24730;DHT22;12832;52.392;13.066;2022-11-12T14:34:30;25.50;40.70
24730;DHT22;12832;52.392;13.066;2022-11-12T14:37:02;25.40;40.60
24730;DHT22;12832;52.392;13.066;2022-11-12T14:39:30;25.40;40.60
24730;DHT22;12832;52.392;13.066;2022-11-12T14:41:59;25.40;40.60
24730;DHT22;12832;52.392;13.066;2022-11-12T14:44:36;25.40;40.60
24730;DHT22;12832;52.392;13.066;2022-11-12T14:47:05;25.40;40.60
24730;DHT22;12832;52.392;13.066;2022-11-12T14:49:40;25.40;40.60
24730;DHT22;12832;52.392;13.066;2022-11-12T14:52:14;25.40;40.60
24730;DHT22;12832;52.392;13.066;2022-11-12T14:54:53;25.40;40.60
24730;DHT22;12832;52.392;13.066;2022-11-12T14:57:29;25.40;40.60
24730;DHT22;12832;52.392;13.066;2022-11-12T14:59:57;25.40;40.70
24730;DHT22;12832;52.392;13.066;2022-11-12T15:02:29;25.40;40.70
24730;DHT22;12832;52.392;13.066;2022-11-12T15:05:20;25.40;40.60
24730;DHT22;12832;52.392;13.066;2022-11-12T15:15:52;25.40;40.70
24730;DHT22;12832;52.392;13.066;2022-11-12T15:18:28;25.40;40.70
24730;DHT22;12832;52.392;13.066;2022-11-12T15:21:26;25.50;40.70
24730;DHT22;12832;52.392;13.066;2022-11-12T15:24:53;25.50;40.70
24730;DHT22;12832;52.392;13.066;2022-11-12T15:27:36;25.50;40.70
24730;DHT22;12832;52.392;13.066;2022-11-12T15:30:21;25.50;40.60
24730;DHT22;12832;52.392;13.066;2022-11-12T15:35:39;25.50;40.60
24730;DHT22;12832;52.392;13.066;2022-11-12T15:38:26;25.50;40.60
24730;DHT22;12832;52.392;13.066;2022-11-12T15:41:18;25.50;40.60
24730;DHT22;12832;52.392;13.066;2022-11-12T15:43:50;25.50;40.60
24730;DHT22;12832;52.392;13.066;2022-11-12T15:46:19;25.50;40.60
24730;DHT22;12832;52.392;13.066;2022-11-12T15:48:49;25.50;40.70
24730;DHT22;12832;52.392;13.066;2022-11-12T15:51:25;25.50;40.70
24730;DHT22;12832;52.392;13.066;2022-11-12T15:53:53;25.50;40.70
24730;DHT22;12832;52.392;13.066;2022-11-12T15:56:22;25.50;40.60
24730;DHT22;12832;52.392;13.066;2022-11-12T15:58:51;25.50;40.60
24730;DHT22;12832;52.392;13.066;2022-11-12T16:01:21;25.50;40.60
24730;DHT22;12832;52.392;13.066;2022-11-12T16:03:52;25.50;40.60
24730;DHT22;12832;52.392;13.066;2022-11-12T16:06:23;25.50;40.70
24730;DHT22;12832;52.392;13.066;2022-11-12T16:08:52;25.50;40.60
24730;DHT22;12832;52.392;13.066;2022-11-12T16:11:22;25.50;40.70
24730;DHT22;12832;52.392;13.066;2022-11-12T16:14:08;25.50;40.70
24730;DHT22;12832;52.392;13.066;2022-11-12T16:16:38;25.50;40.70
24730;DHT22;12832;52.392;13.066;2022-11-12T16:19:12;25.50;40.70
24730;DHT22;12832;52.392;13.066;2022-11-12T16:21:44;25.50;40.60
24730;DHT22;12832;52.392;13.066;2022-11-12T16:24:13;25.50;40.70
24730;DHT22;12832;52.392;13.066;2022-11-12T16:26:42;25.50;40.70
24730;DHT22;12832;52.392;13.066;2022-11-12T16:29:13;25.50;40.70
24730;DHT22;12832;52.392;13.066;2022-11-12T16:31:41;25.50;40.70
24730;DHT22;12832;52.392;13.066;2022-11-12T16:34:13;25.50;40.70
24730;DHT22;12832;52.392;13.066;2022-11-12T16:36:57;25.50;40.70
24730;DHT22;12832;52.392;13.066;2022-11-12T16:39:25;25.50;40.80
24730;DHT22;12832;52.392;13.066;2022-11-12T16:41:54;25.50;40.80
24730;DHT22;12832;52.392;13.066;2022-11-12T16:44:24;25.50;40.70
24730;DHT22;12832;52.392;13.066;2022-11-12T16:47:00;25.50;40.70
24730;DHT22;12832;52.392;13.066;2022-11-12T16:49:29;25.50;40.70
24730;DHT22;12832;52.392;13.066;2022-11-12T16:52:07;25.50;40.70
24730;DHT22;12832;52.392;13.066;2022-11-12T16:54:37;25.50;40.70
24730;DHT22;12832;52.392;13.066;2022-11-12T16:57:07;25.50;40.70
24730;DHT22;12832;52.392;13.066;2022-11-12T16:59:36;25.50;40.70
24730;DHT22;12832;52.392;13.066;2022-11-12T17:02:11;25.50;40.70
24730;DHT22;12832;52.392;13.066;2022-11-12T17:04:43;25.50;40.70
24730;DHT22;12832;52.392;13.066;2022-11-12T17:07:11;25.50;40.70
24730;DHT22;12832;52.392;13.066;2022-11-12T17:09:44;25.50;40.70
24730;DHT22;12832;52.392;13.066;2022-11-12T17:12:17;25.50;40.70
24730;DHT22;12832;52.392;13.066;2022-11-12T17:14:44;25.50;40.70
24730;DHT22;12832;52.392;13.066;2022-11-12T17:17:16;25.50;40.70
24730;DHT22;12832;52.392;13.066;2022-11-12T17:19:44;25.50;40.70
24730;DHT22;12832;52.392;13.066;2022-11-12T17:22:14;25.50;40.70
24730;DHT22;12832;52.392;13.066;2022-11-12T17:24:48;25.50;40.80
24730;DHT22;12832;52.392;13.066;2022-11-12T17:27:17;25.50;40.70
24730;DHT22;12832;52.392;13.066;2022-11-12T17:29:46;25.50;40.80
24730;DHT22;12832;52.392;13.066;2022-11-12T17:32:14;25.50;40.70
24730;DHT22;12832;52.392;13.066;2022-11-12T17:34:41;25.50;40.70
24730;DHT22;12832;52.392;13.066;2022-11-12T17:37:10;25.50;40.70